Flight Track Log - Related Links

Times and Time Zones

All times are in EDT time to prevent confusion due to time zone crossing. See the N546QS flight status page for this flight to view local times or setup timezone preferences in your user account.

Time Position Orientation Groundspeed Altitude Reporting Facility
EDT Latitude Longitude Course Direction KTS MPH feet Rate Location/Type
Wed 12:15:00 PM 51.1708 -16.7101 298° West  Level Estimated
Wed 12:16:00 PM 51.1845 -16.8621 278° West  Level Estimated
Wed 12:17:00 PM 51.1980 -17.0142 278° West  Level Estimated
Wed 12:18:00 PM 51.2113 -17.1663 278° West  Level Estimated
Wed 12:19:00 PM 51.2244 -17.3186 278° West  Level Estimated
Wed 12:20:00 PM 51.2373 -17.4709 278° West  Level Estimated
Wed 12:21:00 PM 51.2500 -17.6233 278° West  Level Estimated
Wed 12:22:00 PM 51.2626 -17.7758 278° West  Level Estimated
Wed 12:23:00 PM 51.2749 -17.9284 277° West  Level Estimated
Wed 12:24:00 PM 51.2870 -18.0811 277° West  Level Estimated
Wed 12:25:00 PM 51.2989 -18.2338 277° West  Level Estimated
Wed 12:26:00 PM 51.3106 -18.3867 277° West  Level Estimated
Wed 12:27:00 PM 51.3221 -18.5396 277° West  Level Estimated
Wed 12:28:00 PM 51.3334 -18.6925 277° West  Level Estimated
Wed 12:29:00 PM 51.3446 -18.8456 277° West  Level Estimated
Wed 12:30:00 PM 51.3555 -18.9987 277° West  Level Estimated
Wed 12:31:00 PM 51.3662 -19.1519 276° West  Level Estimated
Wed 12:32:00 PM 51.3767 -19.3052 276° West  Level Estimated
Wed 12:33:00 PM 51.3870 -19.4585 276° West  Level Estimated
Wed 12:34:00 PM 51.3971 -19.6119 276° West  Level Estimated
Wed 12:35:00 PM 51.4071 -19.7654 276° West  Level Estimated
Wed 12:36:00 PM 51.4168 -19.9190 276° West  Level Estimated
Wed 12:37:00 PM 51.4263 -20.0726 276° West  Level Estimated
Wed 12:38:00 PM 51.4356 -20.2262 276° West  Level Estimated
Wed 12:39:00 PM 51.4447 -20.3800 275° West  Level Estimated
Wed 12:40:00 PM 51.4536 -20.5338 275° West  Level Estimated
Wed 12:41:00 PM 51.4623 -20.6876 275° West  Level Estimated
Wed 12:42:00 PM 51.4709 -20.8415 275° West  Level Estimated
Wed 12:43:00 PM 51.4792 -20.9955 275° West  Level Estimated
Wed 12:44:00 PM 51.4873 -21.1495 275° West  Level Estimated
Wed 12:45:00 PM 51.4952 -21.3036 275° West  Level Estimated
Wed 12:46:00 PM 51.5029 -21.4577 275° West  Level Estimated
Wed 12:47:00 PM 51.5104 -21.6119 275° West  Level Estimated
Wed 12:48:00 PM 51.5177 -21.7661 274° West  Level Estimated
Wed 12:49:00 PM 51.5248 -21.9204 274° West  Level Estimated
Wed 12:50:00 PM 51.5317 -22.0747 274° West  Level Estimated
Wed 12:51:00 PM 51.5384 -22.2291 274° West  Level Estimated
Wed 12:52:00 PM 51.5448 -22.3835 274° West  Level Estimated
Wed 12:53:00 PM 51.5511 -22.5380 274° West  Level Estimated
Wed 12:54:00 PM 51.5572 -22.6925 274° West  Level Estimated
Wed 12:55:00 PM 51.5631 -22.8470 274° West  Level Estimated
Wed 12:56:00 PM 51.5688 -23.0016 273° West  Level Estimated
Wed 12:57:00 PM 51.5742 -23.1562 273° West  Level Estimated
Wed 12:58:00 PM 51.5795 -23.3109 273° West  Level Estimated
Wed 12:59:00 PM 51.5846 -23.4656 273° West  Level Estimated
Wed 01:00:00 PM 51.5895 -23.6203 273° West  Level Estimated
Wed 01:01:00 PM 51.5941 -23.7751 273° West  Level Estimated
Wed 01:02:00 PM 51.5986 -23.9299 273° West  Level Estimated
Wed 01:03:00 PM 51.6028 -24.0847 273° West  Level Estimated
Wed 01:04:00 PM 51.6069 -24.2395 272° West  Level Estimated
Wed 01:05:00 PM 51.6107 -24.3944 272° West  Level Estimated
Wed 01:06:00 PM 51.6144 -24.5493 272° West  Level Estimated
Wed 01:07:00 PM 51.6178 -24.7042 272° West  Level Estimated
Wed 01:08:00 PM 51.6210 -24.8592 272° West  Level Estimated
Wed 01:09:00 PM 51.6241 -25.0142 272° West  Level Estimated
Wed 01:10:00 PM 51.6269 -25.1691 272° West  Level Estimated
Wed 01:11:00 PM 51.6295 -25.3242 272° West  Level Estimated
Wed 01:12:00 PM 51.6319 -25.4792 272° West  Level Estimated
Wed 01:13:00 PM 51.6341 -25.6342 271° West  Level Estimated
Wed 01:14:00 PM 51.6362 -25.7893 271° West  Level Estimated
Wed 01:15:00 PM 51.6380 -25.9443 271° West  Level Estimated
Wed 01:16:00 PM 51.6396 -26.0994 271° West  Level Estimated
Wed 01:17:00 PM 51.6410 -26.2545 271° West  Level Estimated
Wed 01:18:00 PM 51.6422 -26.4096 271° West  Level Estimated
Wed 01:19:00 PM 51.6431 -26.5647 271° West  Level Estimated
Wed 01:20:00 PM 51.6439 -26.7198 271° West  Level Estimated
Wed 01:21:00 PM 51.6445 -26.8750 270° West  Level Estimated
Wed 01:22:00 PM 51.6449 -27.0301 270° West  Level Estimated
Wed 01:23:00 PM 51.6451 -27.1852 270° West  Level Estimated
Wed 01:24:00 PM 51.6450 -27.3403 270° West  Level Estimated
Wed 01:25:00 PM 51.6448 -27.4954 270° West  Level Estimated
Wed 01:26:00 PM 51.6443 -27.6506 270° West  Level Estimated
Wed 01:27:00 PM 51.6437 -27.8057 270° West  Level Estimated
Wed 01:28:00 PM 51.6428 -27.9608 270° West  Level Estimated
Wed 01:29:00 PM 51.6418 -28.1159 269° West  Level Estimated
Wed 01:30:00 PM 51.6405 -28.2710 269° West  Level Estimated
Wed 01:31:00 PM 51.6391 -28.4261 269° West  Level Estimated
Wed 01:32:00 PM 51.6374 -28.5812 269° West  Level Estimated
Wed 01:33:00 PM 51.6355 -28.7362 269° West  Level Estimated
Wed 01:34:00 PM 51.6334 -28.8913 269° West  Level Estimated
Wed 01:35:00 PM 51.6312 -29.0463 269° West  Level Estimated
Wed 01:36:00 PM 51.6287 -29.2013 269° West  Level Estimated
Wed 01:37:00 PM 51.6260 -29.3563 268° West  Level Estimated
Wed 01:38:00 PM 51.6231 -29.5113 268° West  Level Estimated
Wed 01:39:00 PM 51.6200 -29.6663 268° West  Level Estimated
Wed 01:40:00 PM 51.6167 -29.8212 268° West  Level Estimated
Wed 01:41:00 PM 51.6132 -29.9761 268° West  Level Estimated
Wed 01:41:00 PM 56.0000 -40.0000 264° West 470 541 43,000  Level ETMS Enhanced Traffic Management System
Wed 01:42:00 PM 51.6095 -30.1310 268° West  Level Estimated
Wed 01:43:00 PM 51.6056 -30.2859 268° West  Level Estimated
Wed 01:44:00 PM 51.6015 -30.4407 268° West  Level Estimated
Wed 01:45:00 PM 51.5971 -30.5955 267° West  Level Estimated
Wed 01:46:00 PM 51.5926 -30.7503 267° West  Level Estimated
Wed 01:47:00 PM 51.5879 -30.9051 267° West  Level Estimated
Wed 01:48:00 PM 55.4320 -46.6503 259° West 470 541 43,000  Level FlightAware Transoceanic
Wed 01:49:00 PM 55.4061 -46.8758 258° West 470 541 43,000  Level FlightAware Transoceanic
Wed 01:50:00 PM 55.3798 -47.1010 258° West 470 541 43,000  Level FlightAware Transoceanic
Wed 01:51:00 PM 55.3530 -47.3260 258° West 470 541 43,000  Level FlightAware Transoceanic
Wed 01:52:00 PM 55.3258 -47.5506 258° West 470 541 43,000  Level FlightAware Transoceanic
Wed 01:53:00 PM 55.2982 -47.7749 258° West 470 541 43,000  Level FlightAware Transoceanic
Wed 01:54:00 PM 55.2702 -47.9989 258° West 470 541 43,000  Level FlightAware Transoceanic
Wed 01:55:00 PM 55.2418 -48.2225 257° West 470 541 43,000  Level FlightAware Transoceanic
Wed 01:56:00 PM 55.2130 -48.4459 257° West 470 541 43,000  Level FlightAware Transoceanic
Wed 01:57:00 PM 55.1838 -48.6689 257° West 470 541 43,000  Level FlightAware Transoceanic
Wed 01:58:00 PM 55.1542 -48.8916 257° West 470 541 43,000  Level FlightAware Transoceanic
Wed 01:59:00 PM 55.1241 -49.1139 257° West 470 541 43,000  Level FlightAware Transoceanic
Wed 02:00:00 PM 55.0937 -49.3360 256° West 470 541 43,000  Level FlightAware Transoceanic
Wed 02:01:00 PM 55.0629 -49.5577 256° West 470 541 43,000  Level FlightAware Transoceanic
Wed 02:02:00 PM 55.0316 -49.7790 256° West 470 541 43,000  Level FlightAware Transoceanic
Wed 02:03:00 PM 54.9813 -49.9221 239° Southwest  Level Estimated
Wed 02:04:00 PM 54.9309 -50.0649 238° Southwest  Level Estimated
Wed 02:05:00 PM 54.8803 -50.2073 238° Southwest  Level Estimated
Wed 02:06:00 PM 54.8295 -50.3493 238° Southwest  Level Estimated
Wed 02:07:00 PM 54.7785 -50.4910 238° Southwest  Level Estimated
Wed 02:07:00 PM 55.0000 -50.0000 251° West 485 558 43,000  Level ETMS Enhanced Traffic Management System
Wed 02:07:08 PM 55.0000 -50.0000 251° West 485 558 43,000  Level ETMS Enhanced Traffic Management System
Wed 02:08:00 PM 54.7274 -50.6324 238° Southwest  Level Estimated
Wed 02:09:00 PM 54.6761 -50.7733 238° Southwest  Level Estimated
Wed 02:10:00 PM 54.6246 -50.9139 238° Southwest  Level Estimated
Wed 02:11:00 PM 54.5730 -51.0542 238° Southwest  Level Estimated
Wed 02:12:00 PM 54.5213 -51.1941 238° Southwest  Level Estimated
Wed 02:13:00 PM 54.5323 -52.1931 249° West 485 558 43,000  Level FlightAware Transoceanic
Wed 02:14:00 PM 54.4834 -52.4096 249° West 485 558 43,000  Level FlightAware Transoceanic
Wed 02:15:00 PM 54.4341 -52.6256 248° West 485 558 43,000  Level FlightAware Transoceanic
Wed 02:16:00 PM 54.3844 -52.8411 248° West 485 558 43,000  Level FlightAware Transoceanic
Wed 02:17:00 PM 54.3343 -53.0560 248° West 485 558 43,000  Level FlightAware Transoceanic
Wed 02:18:00 PM 54.2839 -53.2704 248° West 485 558 43,000  Level FlightAware Transoceanic
Wed 02:19:00 PM 54.2330 -53.4843 248° West 485 558 43,000  Level FlightAware Transoceanic
Wed 02:20:00 PM 54.1818 -53.6977 248° West 485 558 43,000  Level FlightAware Transoceanic
Wed 02:21:00 PM 54.1302 -53.9105 247° West 485 558 43,000  Level FlightAware Transoceanic
Wed 02:22:00 PM 54.0783 -54.1228 247° West 485 558 43,000  Level FlightAware Transoceanic
Wed 02:23:00 PM 54.0259 -54.3346 247° West 485 558 43,000  Level FlightAware Transoceanic
Wed 02:23:37 PM 54.0500 -54.1500 232° Southwest 470 541 43,000  Level Gander Center
Wed 02:24:00 PM 53.9732 -54.5458 247° West 485 558 43,000  Level FlightAware Transoceanic
Wed 02:24:37 PM 54.0000 -54.3667 249° West 470 541 43,000  Level Gander Center
Wed 02:25:00 PM 53.9201 -54.7565 247° West 485 558 43,000  Level FlightAware Transoceanic
Wed 02:25:37 PM 53.9500 -54.5667 247° West 470 541 43,000  Level Gander Center
Wed 02:26:00 PM 53.8615 -54.8860 233° Southwest  Level Estimated
Wed 02:26:37 PM 53.8833 -54.7833 243° Southwest 480 552 43,000  Level Gander Center
Wed 02:27:00 PM 53.8027 -55.0152 232° Southwest  Level Estimated
Wed 02:27:37 PM 53.8500 -54.9500 251° West 480 552 43,000  Level Gander Center
Wed 02:28:00 PM 53.7438 -55.1440 232° Southwest  Level Estimated
Wed 02:28:37 PM 53.7833 -55.1667 243° Southwest 480 552 43,000  Level Gander Center
Wed 02:29:00 PM 53.6847 -55.2724 232° Southwest  Level Estimated
Wed 02:29:37 PM 53.7000 -55.3500 233° Southwest 480 552 43,000  Level Gander Center
Wed 02:30:37 PM 53.6500 -55.5500 247° West 470 541 43,000  Level Gander Center
Wed 02:31:37 PM 53.5667 -55.7333 233° Southwest 480 552 43,000  Level Gander Center
Wed 02:32:29 PM 53.5167 -55.9167 245° Southwest 480 552 43,000  Level Gander Center
Wed 02:33:29 PM 53.4333 -56.0833 230° Southwest 480 552 43,000  Level Gander Center
Wed 02:34:29 PM 53.3833 -56.2833 247° West 480 552 43,000  Level Gander Center
Wed 02:34:45 PM 53.3500 -56.3500 230° Southwest 480 552 43,000  Level Moncton Center
Wed 02:35:37 PM 53.3000 -56.5000 241° Southwest 480 552 43,000  Level Gander Center
Wed 02:36:37 PM 53.2333 -56.7000 241° Southwest 480 552 43,000  Level Gander Center
Wed 02:37:37 PM 53.1500 -56.8833 233° Southwest 480 552 43,000  Level Gander Center
Wed 02:38:29 PM 53.0833 -57.0500 236° Southwest 490 564 43,000  Level Gander Center
Wed 02:39:29 PM 53.0167 -57.2500 241° Southwest 490 564 43,000  Level Gander Center
Wed 02:39:45 PM 53.0000 -57.3000 241° Southwest 480 552 43,000  Level Moncton Center
Wed 02:40:37 PM 52.9333 -57.4833 239° Southwest 480 552 43,000  Level Gander Center
Wed 02:41:29 PM 52.8667 -57.6500 237° Southwest 470 541 43,000  Level Gander Center
Wed 02:42:29 PM 52.8167 -57.8167 244° Southwest 460 529 43,000  Level Gander Center
Wed 02:43:29 PM 52.7667 -58.0000 246° West 470 541 43,000  Level Gander Center
Wed 02:43:45 PM 52.7333 -58.0667 230° Southwest 470 541 43,000  Level Moncton Center
Wed 02:44:37 PM 52.6833 -58.2167 241° Southwest 470 541 43,000  Level Gander Center
Wed 02:45:29 PM 52.6167 -58.3667 234° Southwest 470 541 43,000  Level Gander Center
Wed 02:46:29 PM 52.5667 -58.5667 248° West 470 541 43,000  Level Gander Center
Wed 02:46:45 PM 52.5500 -58.6167 241° Southwest 470 541 43,000  Level Moncton Center
Wed 02:47:37 PM 52.4833 -58.7833 237° Southwest 480 552 43,000  Level Gander Center
Wed 02:48:37 PM 52.4167 -58.9500 237° Southwest 470 541 43,000  Level Gander Center
Wed 02:49:37 PM 52.3500 -59.1500 241° Southwest 480 552 43,000  Level Gander Center
Wed 02:50:37 PM 52.3000 -59.3333 246° West 480 552 43,000  Level Gander Center
Wed 02:51:37 PM 52.2167 -59.5000 231° Southwest 470 541 43,000  Level Gander Center
Wed 02:52:37 PM 52.1500 -59.7000 242° Southwest 470 541 43,000  Level Gander Center
Wed 02:53:29 PM 52.0833 -59.8667 237° Southwest 470 541 43,000  Level Gander Center
Wed 02:54:29 PM 52.0167 -60.0667 242° Southwest 470 541 43,000  Level Gander Center
Wed 02:54:45 PM 52.0167 -60.1000 270° West 470 541 43,000  Level Moncton Center
Wed 02:55:45 PM 51.9333 -60.2667 231° Southwest 470 541 43,000  Level Moncton Center
Wed 02:56:37 PM 51.8833 -60.4500 246° West 470 541 43,000  Level Gander Center
Wed 02:57:37 PM 51.8000 -60.6333 234° Southwest 470 541 43,000  Level Gander Center
Wed 02:58:37 PM 51.7333 -60.8000 237° Southwest 480 552 43,000  Level Gander Center
Wed 02:59:37 PM 51.6667 -60.9833 240° Southwest 470 541 43,000  Level Gander Center
Wed 03:00:37 PM 51.6000 -61.1500 237° Southwest 460 529 43,000  Level Gander Center
Wed 03:01:37 PM 51.5333 -61.3333 240° Southwest 460 529 43,000  Level Gander Center
Wed 03:02:37 PM 51.4667 -61.5000 237° Southwest 460 529 43,000  Level Gander Center
Wed 03:03:37 PM 51.4000 -61.6833 240° Southwest 460 529 43,000  Level Gander Center
Wed 03:04:37 PM 51.3333 -61.8667 240° Southwest 470 541 43,000  Level Gander Center
Wed 03:05:37 PM 51.2667 -62.0333 237° Southwest 470 541 43,000  Level Gander Center
Wed 03:06:37 PM 51.1833 -62.2167 234° Southwest 470 541 43,000  Level Gander Center
Wed 03:07:37 PM 51.1167 -62.3667 235° Southwest 470 541 43,000  Level Gander Center
Wed 03:08:37 PM 51.0500 -62.5667 242° Southwest 470 541 43,000  Level Gander Center
Wed 03:09:37 PM 50.9833 -62.7500 240° Southwest 470 541 43,000  Level Gander Center
Wed 03:10:37 PM 50.9167 -62.9333 240° Southwest 480 552 43,000  Level Gander Center
Wed 03:11:37 PM 50.8167 -63.1167 229° Southwest 480 552 43,000  Level Gander Center
Wed 03:12:37 PM 50.7500 -63.2667 235° Southwest 480 552 43,000  Level Gander Center
Wed 03:13:37 PM 50.6833 -63.4500 240° Southwest 480 552 43,000  Level Gander Center
Wed 03:14:37 PM 50.6167 -63.6333 240° Southwest 470 541 43,000  Level Gander Center
Wed 03:15:37 PM 50.5333 -63.7833 229° Southwest 460 529 43,000  Level Gander Center
Wed 03:16:37 PM 50.4500 -63.9667 235° Southwest 460 529 43,000  Level Gander Center
Wed 03:17:37 PM 50.3833 -64.1333 238° Southwest 460 529 43,000  Level Gander Center
Wed 03:18:37 PM 50.3167 -64.3000 238° Southwest 460 529 43,000  Level Gander Center
Wed 03:19:37 PM 50.2500 -64.4500 235° Southwest 460 529 43,000  Level Gander Center
Wed 03:20:37 PM 50.1667 -64.6167 232° Southwest 460 529 43,000  Level Gander Center
Wed 03:21:37 PM 50.1000 -64.7833 238° Southwest 460 529 43,000  Level Gander Center
Wed 03:22:37 PM 50.0333 -64.9500 238° Southwest 460 529 43,000  Level Gander Center
Wed 03:23:37 PM 49.9500 -65.1000 229° Southwest 470 541 43,000  Level Gander Center
Wed 03:24:37 PM 49.8833 -65.2833 241° Southwest 470 541 43,000  Level Gander Center
Wed 03:25:37 PM 49.8000 -65.4500 232° Southwest 460 529 43,000  Level Gander Center
Wed 03:26:37 PM 49.7167 -65.6000 229° Southwest 470 541 43,000  Level Gander Center
Wed 03:27:37 PM 49.6500 -65.7833 241° Southwest 470 541 43,000  Level Gander Center
Wed 03:28:37 PM 49.5667 -65.9167 226° Southwest 460 529 43,000  Level Gander Center
Wed 03:29:37 PM 49.5000 -66.1000 241° Southwest 460 529 43,000  Level Gander Center
Wed 03:30:37 PM 49.4333 -66.2500 236° Southwest 460 529 43,000  Level Gander Center
Wed 03:31:37 PM 49.3500 -66.4167 233° Southwest 460 529 43,000  Level Gander Center
Wed 03:32:37 PM 49.2833 -66.5667 236° Southwest 450 518 43,000  Level Gander Center
Wed 03:33:37 PM 49.2000 -66.7167 230° Southwest 460 529 43,000  Level Gander Center
Wed 03:34:37 PM 49.1333 -66.8833 239° Southwest 450 518 43,000  Level Gander Center
Wed 03:35:37 PM 49.0500 -67.0167 226° Southwest 450 518 43,000  Level Gander Center
Wed 03:36:28 PM 48.9833 -67.1333 229° Southwest 460 529 43,000  Level Montreal Center
Wed 03:37:28 PM 48.9167 -67.2833 236° Southwest 460 529 43,000  Level Montreal Center
Wed 03:37:45 PM 48.8833 -67.3833 243° Southwest 460 529 43,000  Level Moncton Center
Wed 03:38:28 PM 48.8333 -67.4167 204° Southwest 450 518 43,000  Level Montreal Center
Wed 03:39:28 PM 48.7500 -67.6000 235° Southwest 450 518 43,000  Level Montreal Center
Wed 03:40:28 PM 48.6833 -67.7333 233° Southwest 450 518 43,000  Level Montreal Center
Wed 03:41:28 PM 48.6000 -67.9000 233° Southwest 460 529 43,000  Level Montreal Center
Wed 03:42:28 PM 48.5333 -68.0333 233° Southwest 460 529 43,000  Level Montreal Center
Wed 03:43:28 PM 48.4333 -68.2000 228° Southwest 460 529 43,000  Level Montreal Center
Wed 03:44:28 PM 48.3667 -68.3500 236° Southwest 450 518 43,000  Level Montreal Center
Wed 03:45:28 PM 48.3000 -68.5167 239° Southwest 450 518 43,000  Level Montreal Center
Wed 03:46:28 PM 48.2167 -68.6500 227° Southwest 450 518 43,000  Level Montreal Center
Wed 03:47:28 PM 48.1500 -68.8167 239° Southwest 450 518 43,000  Level Montreal Center
Wed 03:48:28 PM 48.0667 -68.9500 227° Southwest 460 529 43,000  Level Montreal Center
Wed 03:49:28 PM 48.0000 -69.1000 236° Southwest 450 518 43,000  Level Montreal Center
Wed 03:50:28 PM 47.9167 -69.2500 230° Southwest 450 518 43,000  Level Montreal Center
Wed 03:51:28 PM 47.8167 -69.3833 222° Southwest 460 529 43,000  Level Montreal Center
Wed 03:52:28 PM 47.7000 -69.4667 206° Southwest 460 529 43,000  Level Montreal Center
Wed 03:53:28 PM 47.6000 -69.5833 218° Southwest 460 529 43,000  Level Montreal Center
Wed 03:54:28 PM 47.4833 -69.6833 210° Southwest 460 529 43,000  Level Montreal Center
Wed 03:55:28 PM 47.3833 -69.7833 214° Southwest 460 529 43,000  Level Montreal Center
Wed 03:56:28 PM 47.2667 -69.8833 210° Southwest 460 529 43,000  Level Montreal Center
Wed 03:57:28 PM 47.1667 -69.9833 214° Southwest 460 529 43,000  Level Montreal Center
Wed 03:58:28 PM 47.0667 -70.0833 214° Southwest 460 529 43,000  Level Montreal Center
Wed 03:58:45 PM 47.0167 -70.1500 222° Southwest 460 529 43,000  Level Moncton Center
Wed 03:59:28 PM 46.9500 -70.1833 199° South 450 518 43,000  Level Montreal Center
Wed 04:00:28 PM 46.8500 -70.3000 219° Southwest 450 518 43,000  Level Montreal Center
Wed 04:01:28 PM 46.7333 -70.3833 206° Southwest 450 518 43,000  Level Montreal Center
Wed 04:02:28 PM 46.6333 -70.5000 219° Southwest 460 529 43,000  Level Montreal Center
Wed 04:02:45 PM 46.6000 -70.5333 214° Southwest 460 529 43,000  Level Moncton Center
Wed 04:03:45 PM 46.4833 -70.6500 215° Southwest 450 518 43,000  Level Moncton Center
Wed 04:04:45 PM 46.3833 -70.7333 210° Southwest 450 518 43,000  Level Moncton Center
Wed 04:05:28 PM 46.3167 -70.7667 199° South 450 518 43,000  Level Montreal Center
Wed 04:06:28 PM 46.2167 -70.8833 219° Southwest 440 506 43,000  Level Montreal Center
Wed 04:07:28 PM 46.1000 -70.9667 206° Southwest 450 518 43,000  Level Montreal Center
Wed 04:08:28 PM 46.0000 -71.0667 215° Southwest 450 518 43,000  Level Montreal Center
Wed 04:09:28 PM 45.8833 -71.1500 206° Southwest 450 518 43,000  Level Montreal Center
Wed 04:09:45 PM 45.8500 -71.2167 234° Southwest 450 518 43,000  Level Moncton Center
Wed 04:10:45 PM 45.7500 -71.3000 210° Southwest 460 529 43,000  Level Moncton Center
Wed 04:11:45 PM 45.6333 -71.4167 215° Southwest 450 518 43,000  Level Moncton Center
Wed 04:12:28 PM 45.5667 -71.4500 199° South 460 529 43,000  Level Montreal Center
Wed 04:13:28 PM 45.4667 -71.5167 205° Southwest 460 529 43,000  Level Montreal Center
Wed 04:14:28 PM 45.3500 -71.6333 215° Southwest 460 529 43,000  Level Montreal Center
Wed 04:15:28 PM 45.2333 -71.7333 211° Southwest 460 529 43,000  Level Montreal Center
Wed 04:16:28 PM 45.1333 -71.8333 215° Southwest 460 529 43,000  Level Montreal Center
Wed 04:16:47 PM 45.1139 -71.8636 228° Southwest 473 544 43,000  Level Boston Center
Wed 04:17:47 PM 45.0039 -71.9558 211° Southwest 468 539 43,000  Level Boston Center
Wed 04:18:47 PM 44.8919 -72.0503 211° Southwest 468 539 43,000  Level Boston Center
Wed 04:19:47 PM 44.7797 -72.1447 211° Southwest 468 539 43,000  Level Boston Center
Wed 04:20:47 PM 44.6925 -72.2211 212° Southwest 468 539 43,000 -150 Level Boston Center
Wed 04:21:47 PM 44.5572 -72.3353 211° Southwest 468 539 42,700 -900 Descending Boston Center
Wed 04:22:47 PM 44.4508 -72.4225 210° Southwest 468 539 41,200 -1,650 Descending Boston Center
Wed 04:23:47 PM 44.3447 -72.5128 211° Southwest 457 526 39,400 -1,800 Descending Boston Center
Wed 04:24:47 PM 44.2258 -72.6111 211° Southwest 451 519 37,600 -1,650 Descending Boston Center
Wed 04:25:47 PM 44.1214 -72.6975 211° Southwest 446 513 36,100 -1,450 Descending Boston Center
Wed 04:26:47 PM 44.0211 -72.7808 211° Southwest 441 507 34,700 -1,400 Descending Boston Center
Wed 04:27:47 PM 43.9147 -72.8694 211° Southwest 441 507 33,300 -1,400 Descending Boston Center
Wed 04:28:47 PM 43.8081 -72.9578 211° Southwest 447 514 31,900 -1,350 Descending Boston Center
Wed 04:29:47 PM 43.6972 -73.0489 211° Southwest 458 527 30,600 -1,300 Descending Boston Center
Wed 04:30:47 PM 43.5986 -73.1281 210° Southwest 458 527 29,300 -1,350 Descending Boston Center
Wed 04:31:47 PM 43.4919 -73.2156 211° Southwest 453 521 27,900 -1,450 Descending Boston Center
Wed 04:32:47 PM 43.3786 -73.3086 211° Southwest 446 513 26,400 -1,400 Descending Boston Center
Wed 04:33:47 PM 43.2717 -73.3925 210° Southwest 446 513 25,100 -1,200 Descending Boston Center
Wed 04:34:47 PM 43.1667 -73.4792 211° Southwest 446 513 24,000 -800 Descending Boston Center
Wed 04:35:47 PM 43.0619 -73.5542 208° Southwest 446 513 23,500 -1,100 Descending Boston Center
Wed 04:36:47 PM 42.9589 -73.6372 211° Southwest 441 507 21,800 -1,800 Descending Boston Center
Wed 04:37:47 PM 42.8622 -73.7175 211° Southwest 429 494 19,900 -1,900 Descending Boston Center
Wed 04:38:47 PM 42.7653 -73.7947 210° Southwest 416 479 18,000 -1,700 Descending Boston Center
Wed 04:39:47 PM 42.6686 -73.8661 209° Southwest 411 473 16,500 -1,000 Descending Boston Center
Wed 04:40:47 PM 42.5719 -73.9344 208° Southwest 406 467 16,000 -250 Descending Boston Center
Wed 04:41:47 PM 42.4836 -73.9997 209° Southwest 400 460 16,000  Level Boston Center
Wed 04:42:47 PM 42.3803 -74.0786 209° Southwest 395 455 16,000 -350 Level Boston Center
Wed 04:43:47 PM 42.2875 -74.1464 208° Southwest 394 453 15,300 -950 Descending Boston Center
Wed 04:44:47 PM 42.1947 -74.2139 208° Southwest 394 453 14,100 -650 Descending Boston Center
Wed 04:45:47 PM 42.1000 -74.2814 208° Southwest 389 448 14,000 -500 Descending Boston Center
Wed 04:46:47 PM 42.0031 -74.3344 202° Southwest 384 442 13,100 -1,250 Descending Boston Center
Wed 04:47:47 PM 41.9044 -74.3758 197° South 379 436 11,500 -1,227 Descending Boston Center
Wed 04:48:59 PM 41.8331 -74.4072 198° South 368 423 10,400 -1,091 Descending Boston Center
Wed 04:49:59 PM 41.7364 -74.4514 199° South 320 368 9,100 -1,150 Descending Boston Center
Wed 04:50:59 PM 41.6589 -74.4825 197° South 297 342 8,100 -1,000 Descending Boston Center
Wed 04:51:59 PM 41.5853 -74.5161 199° South 286 329 7,100 -1,050 Descending Boston Center
Wed 04:52:59 PM 41.5158 -74.5444 197° South 280 322 6,000 -550 Descending Boston Center
Wed 04:53:59 PM 41.4444 -74.5753 198° South 268 308 6,000  Level Boston Center
Wed 04:55:10 PM 41.3500 -74.6167 198° South 265 305 6,000 -412 Level New York TRACON
Wed 04:56:10 PM 41.2833 -74.6333 191° South 261 300 5,100 -684 Descending New York TRACON
Wed 04:57:04 PM 41.2167 -74.6500 191° South 263 303 4,700 -500 Descending New York TRACON
Wed 04:58:10 PM 41.1500 -74.6000 151° Southeast 264 304 4,100 -333 Descending New York TRACON
Wed 04:59:10 PM 41.1000 -74.5333 135° Southeast 260 299 4,000 -211 Descending New York TRACON
Wed 05:00:04 PM 41.0833 -74.4500 105° East 261 300 3,700 -526 Descending New York TRACON
Wed 05:01:04 PM 41.0500 -74.3667 118° Southeast 233 268 3,000 -333 Descending New York TRACON
Wed 05:02:10 PM 41.0167 -74.2833 118° Southeast 223 257 3,000 -200 Level New York TRACON
Wed 05:03:04 PM 41.0167 -74.2167 90° East 221 254 2,600 -526 Descending New York TRACON
Wed 05:04:04 PM 41.0333 -74.1333 75° East 196 226 2,000 -286 Descending New York TRACON
Wed 05:05:10 PM 41.0167 -74.0667 108° East 187 215 2,000  Level New York TRACON
Wed 05:06:04 PM 40.9833 -74.0500 159° South 182 209 2,000 -263 Level New York TRACON
Wed 05:07:04 PM 40.9333 -74.0500 180° South 163 188 1,500 -600 Descending New York TRACON
Wed 05:08:04 PM 40.8833 -74.0500 180° South 134 154 800 -700 Descending New York TRACON

Login

Don't have an account? Register now (free) for customized features, flight alerts, and more!